Time;durP1;ratioP1;P1;durP2;ratioP2;P2;SDS_P1;SDS_P2;PMS_P1;PMS_P2;Temp;Humidity;BMP_temperature;BMP_pressure;BME280_temperature;BME280_humidity;BME280_pressure;Samples;Min_cycle;Max_cycle;Signal;HPM_P1;HPM_P2
2022/07/04 00:01:34;;;;;;;5.32;1.92;;;;;;;;;;5021746;28;20107;-73
2022/07/04 00:04:00;;;;;;;6.20;2.10;;;;;;;;;;5022899;28;20507;-73
2022/07/04 00:06:26;;;;;;;3.78;1.80;;;;;;;;;;5022221;28;20067;-76
2022/07/04 00:08:51;;;;;;;5.95;2.08;;;;;;;;;;5023433;28;20056;-73
2022/07/04 00:11:17;;;;;;;2.55;1.40;;;;;;;;;;5022544;28;20518;-72
2022/07/04 00:13:43;;;;;;;6.45;2.15;;;;;;;;;;5022056;28;20057;-75
2022/07/04 00:16:09;;;;;;;3.28;1.85;;;;;;;;;;5019569;28;20073;-73
2022/07/04 00:18:35;;;;;;;5.63;2.03;;;;;;;;;;5023174;28;20546;-72
2022/07/04 00:21:01;;;;;;;6.15;1.70;;;;;;;;;;5022123;28;20302;-73
2022/07/04 00:23:27;;;;;;;6.32;1.73;;;;;;;;;;5023512;28;20045;-70
2022/07/04 00:25:53;;;;;;;6.38;1.60;;;;;;;;;;5025328;28;20053;-71
2022/07/04 00:28:18;;;;;;;4.45;1.58;;;;;;;;;;5020584;28;20080;-72
2022/07/04 00:30:44;;;;;;;3.97;1.90;;;;;;;;;;5017640;28;20062;-72
2022/07/04 00:33:12;;;;;;;5.97;1.75;;;;;;;;;;5021729;28;20037;-72
2022/07/04 00:35:38;;;;;;;3.40;1.80;;;;;;;;;;5021565;28;20053;-72
2022/07/04 00:38:04;;;;;;;5.93;1.60;;;;;;;;;;5025424;28;20041;-72
2022/07/04 00:40:30;;;;;;;5.75;1.65;;;;;;;;;;5025303;28;20049;-72
2022/07/04 00:43:01;;;;;;;4.07;1.50;;;;;;;;;;5022272;28;20049;-72
2022/07/04 00:45:27;;;;;;;3.60;1.55;;;;;;;;;;5031136;28;20053;-74
2022/07/04 00:47:52;;;;;;;9.45;1.60;;;;;;;;;;5027643;28;20103;-73
2022/07/04 00:50:18;;;;;;;4.35;1.65;;;;;;;;;;5028715;28;20119;-72
2022/07/04 00:52:44;;;;;;;5.60;1.70;;;;;;;;;;5027154;28;20073;-70
2022/07/04 00:55:10;;;;;;;4.15;1.40;;;;;;;;;;5026777;28;20045;-70
2022/07/04 00:57:36;;;;;;;3.58;1.58;;;;;;;;;;5022696;28;20046;-71
2022/07/04 01:00:03;;;;;;;4.68;1.77;;;;;;;;;;5023688;28;20064;-71
2022/07/04 01:02:29;;;;;;;6.05;2.00;;;;;;;;;;5023014;28;20038;-70
2022/07/04 01:04:55;;;;;;;5.05;1.70;;;;;;;;;;5024862;28;20156;-71
2022/07/04 01:07:21;;;;;;;5.25;1.60;;;;;;;;;;5022181;28;20459;-71
2022/07/04 01:09:47;;;;;;;4.93;1.55;;;;;;;;;;5024889;28;20107;-71
2022/07/04 01:12:27;;;;;;;6.22;1.90;;;;;;;;;;5022602;28;20059;-72
2022/07/04 01:14:53;;;;;;;6.28;1.85;;;;;;;;;;5025241;28;20068;-71
2022/07/04 01:17:19;;;;;;;5.63;1.70;;;;;;;;;;5022822;28;20061;-71
2022/07/04 01:19:45;;;;;;;5.53;1.85;;;;;;;;;;5023607;28;20436;-72
2022/07/04 01:22:12;;;;;;;4.05;1.90;;;;;;;;;;5019967;28;20072;-71
2022/07/04 01:24:38;;;;;;;5.32;1.80;;;;;;;;;;5025591;28;20056;-72
2022/07/04 01:27:04;;;;;;;5.70;2.50;;;;;;;;;;5027779;28;20411;-70
2022/07/04 01:29:31;;;;;;;5.80;2.63;;;;;;;;;;5026588;28;20549;-73
2022/07/04 01:32:04;;;;;;;6.40;2.60;;;;;;;;;;5024739;28;20049;-71
2022/07/04 01:34:29;;;;;;;5.57;2.95;;;;;;;;;;5025382;28;20045;-71
2022/07/04 01:36:55;;;;;;;9.48;3.05;;;;;;;;;;5023667;28;20037;-70
2022/07/04 01:39:21;;;;;;;7.70;2.90;;;;;;;;;;5024550;28;20502;-70
2022/07/04 01:41:47;;;;;;;5.45;3.13;;;;;;;;;;5024681;28;20065;-72
2022/07/04 01:44:13;;;;;;;5.45;3.10;;;;;;;;;;5026308;28;20161;-71
2022/07/04 01:46:39;;;;;;;8.25;3.17;;;;;;;;;;5023822;28;20529;-71
2022/07/04 01:49:04;;;;;;;7.43;3.40;;;;;;;;;;5023731;28;20132;-70
2022/07/04 01:51:30;;;;;;;6.00;3.30;;;;;;;;;;5023065;28;20490;-70
2022/07/04 01:53:56;;;;;;;9.90;3.17;;;;;;;;;;5024476;28;20049;-69
2022/07/04 01:56:22;;;;;;;7.15;3.15;;;;;;;;;;5023280;28;20057;-71
2022/07/04 01:58:48;;;;;;;5.00;3.00;;;;;;;;;;5026317;28;20509;-70
2022/07/04 02:01:29;;;;;;;10.15;3.22;;;;;;;;;;5024925;28;20049;-70
2022/07/04 02:03:56;;;;;;;6.20;3.80;;;;;;;;;;5026436;28;20057;-69
2022/07/04 02:06:22;;;;;;;10.02;3.78;;;;;;;;;;5022826;28;20053;-71
2022/07/04 02:13:00;;;;;;;17.75;3.50;;;;;;;;;;5023106;28;20057;-74
2022/07/04 02:14:19;;;;;;;6.45;3.25;;;;;;;;;;5022126;28;20049;-71
2022/07/04 02:16:45;;;;;;;6.15;3.30;;;;;;;;;;5023237;28;20060;-69
2022/07/04 02:19:11;;;;;;;7.88;3.38;;;;;;;;;;5024384;28;20037;-69
2022/07/04 02:21:37;;;;;;;9.80;3.22;;;;;;;;;;5021627;28;20423;-72
2022/07/04 02:24:04;;;;;;;6.57;3.28;;;;;;;;;;5022066;28;20049;-70
2022/07/04 02:26:29;;;;;;;10.20;3.47;;;;;;;;;;5024394;28;20326;-71
2022/07/04 02:28:55;;;;;;;8.23;3.03;;;;;;;;;;5022131;28;20129;-72
2022/07/04 02:31:21;;;;;;;7.45;3.67;;;;;;;;;;5021634;28;20132;-70
2022/07/04 02:33:47;;;;;;;7.28;3.15;;;;;;;;;;5024728;28;20064;-70
2022/07/04 02:36:13;;;;;;;8.50;3.60;;;;;;;;;;5023037;28;20050;-68
2022/07/04 02:38:39;;;;;;;9.73;3.58;;;;;;;;;;5020286;28;20079;-70
2022/07/04 02:41:05;;;;;;;8.30;3.13;;;;;;;;;;5017664;28;20384;-70
2022/07/04 02:43:31;;;;;;;7.65;3.60;;;;;;;;;;5023388;28;20045;-71
2022/07/04 02:45:57;;;;;;;9.93;3.83;;;;;;;;;;5018512;28;20146;-71
2022/07/04 02:48:23;;;;;;;5.97;3.30;;;;;;;;;;5018767;28;20053;-71
2022/07/04 02:50:49;;;;;;;9.00;3.60;;;;;;;;;;5020373;28;20439;-70
2022/07/04 02:53:15;;;;;;;8.77;3.25;;;;;;;;;;5024333;28;20514;-71
2022/07/04 02:55:40;;;;;;;6.20;3.50;;;;;;;;;;5025399;28;20153;-70
2022/07/04 02:58:06;;;;;;;7.93;3.38;;;;;;;;;;5025211;28;20423;-70
2022/07/04 03:00:32;;;;;;;5.85;3.60;;;;;;;;;;5026463;28;20053;-70
2022/07/04 03:02:58;;;;;;;11.60;3.67;;;;;;;;;;5022837;28;20041;-70
2022/07/04 03:05:24;;;;;;;9.80;3.85;;;;;;;;;;5023740;28;20131;-70
2022/07/04 03:07:50;;;;;;;5.72;3.25;;;;;;;;;;5024770;28;20057;-68
2022/07/04 03:10:15;;;;;;;9.20;4.05;;;;;;;;;;5026441;28;21162;-72
2022/07/04 03:12:41;;;;;;;8.68;3.20;;;;;;;;;;5020845;28;20772;-69
2022/07/04 03:15:08;;;;;;;6.07;3.25;;;;;;;;;;5023511;28;20046;-68
2022/07/04 03:17:33;;;;;;;9.10;3.50;;;;;;;;;;5023836;28;20072;-69
2022/07/04 03:19:59;;;;;;;5.90;3.15;;;;;;;;;;5023377;28;20438;-69
2022/07/04 03:22:26;;;;;;;11.30;3.55;;;;;;;;;;5021097;28;20045;-71
2022/07/04 03:24:52;;;;;;;8.23;3.35;;;;;;;;;;5024181;28;20053;-70
2022/07/04 03:27:17;;;;;;;7.88;3.35;;;;;;;;;;5021040;28;20057;-69
2022/07/04 03:29:43;;;;;;;5.90;3.53;;;;;;;;;;5023619;28;20059;-70
2022/07/04 03:32:09;;;;;;;9.93;3.33;;;;;;;;;;5021479;28;20053;-70
2022/07/04 03:34:35;;;;;;;6.00;3.40;;;;;;;;;;5022481;28;20459;-69
2022/07/04 03:37:01;;;;;;;6.57;2.90;;;;;;;;;;5025476;28;20091;-69
2022/07/04 03:39:27;;;;;;;10.68;3.50;;;;;;;;;;5022960;28;20113;-69
2022/07/04 03:41:53;;;;;;;8.70;3.70;;;;;;;;;;5019519;28;20057;-70
2022/07/04 03:44:19;;;;;;;9.65;3.65;;;;;;;;;;5023590;28;20041;-70
2022/07/04 03:46:44;;;;;;;11.25;3.40;;;;;;;;;;5021906;28;20107;-71
2022/07/04 03:49:10;;;;;;;7.22;3.13;;;;;;;;;;5025245;28;20098;-71
2022/07/04 03:51:36;;;;;;;6.88;3.35;;;;;;;;;;5021717;28;20162;-72
2022/07/04 03:54:02;;;;;;;11.45;3.20;;;;;;;;;;5024763;28;20120;-70
2022/07/04 03:56:28;;;;;;;7.00;3.08;;;;;;;;;;5022497;28;20048;-70
2022/07/04 03:58:54;;;;;;;7.95;3.53;;;;;;;;;;5023803;28;20057;-70
2022/07/04 04:01:20;;;;;;;9.38;3.40;;;;;;;;;;5020818;28;20923;-71
2022/07/04 04:06:32;;;;;;;9.15;3.45;;;;;;;;;;5009819;28;20083;-71
2022/07/04 04:08:58;;;;;;;10.27;3.05;;;;;;;;;;5022208;28;20049;-70
2022/07/04 04:11:24;;;;;;;8.68;3.10;;;;;;;;;;5019253;28;20419;-69
2022/07/04 04:13:50;;;;;;;9.25;3.53;;;;;;;;;;5021223;28;20084;-71
2022/07/04 04:16:16;;;;;;;5.82;3.17;;;;;;;;;;5020961;28;20076;-71
2022/07/04 04:18:42;;;;;;;7.18;3.38;;;;;;;;;;5021123;28;20087;-72
2022/07/04 04:21:08;;;;;;;13.43;3.65;;;;;;;;;;5020989;28;20053;-69
2022/07/04 04:23:33;;;;;;;8.55;3.95;;;;;;;;;;5022268;28;20407;-71
2022/07/04 04:25:59;;;;;;;6.43;3.00;;;;;;;;;;5020660;28;20065;-69
2022/07/04 04:28:25;;;;;;;10.25;3.13;;;;;;;;;;5020691;28;20053;-72
2022/07/04 04:30:51;;;;;;;8.25;3.55;;;;;;;;;;5019590;28;20833;-71
2022/07/04 04:33:17;;;;;;;10.55;3.53;;;;;;;;;;5022986;28;20084;-70
2022/07/04 04:35:43;;;;;;;7.53;3.50;;;;;;;;;;5019982;28;20081;-70
2022/07/04 04:38:09;;;;;;;5.32;3.63;;;;;;;;;;5019010;28;20454;-68
2022/07/04 04:40:35;;;;;;;9.05;4.15;;;;;;;;;;5018676;28;20056;-69
2022/07/04 04:43:01;;;;;;;13.15;4.20;;;;;;;;;;5021927;28;20045;-70
2022/07/04 04:45:27;;;;;;;7.93;3.70;;;;;;;;;;5021153;28;20797;-70
2022/07/04 04:47:53;;;;;;;10.10;3.83;;;;;;;;;;5020292;28;20521;-69
2022/07/04 04:50:20;;;;;;;14.27;4.25;;;;;;;;;;5018909;28;20126;-70
2022/07/04 04:52:46;;;;;;;6.63;3.92;;;;;;;;;;5018675;28;20423;-68
2022/07/04 04:55:12;;;;;;;8.15;3.92;;;;;;;;;;5021162;28;20049;-69
2022/07/04 04:57:38;;;;;;;11.10;3.70;;;;;;;;;;5022603;28;20793;-71
2022/07/04 05:00:04;;;;;;;13.75;4.03;;;;;;;;;;5022455;28;20048;-70
2022/07/04 05:02:30;;;;;;;10.02;3.95;;;;;;;;;;5019581;28;20048;-69
2022/07/04 05:04:56;;;;;;;8.77;3.40;;;;;;;;;;5020594;28;20042;-73
2022/07/04 05:07:22;;;;;;;9.57;4.35;;;;;;;;;;5020897;28;20621;-68
2022/07/04 05:09:48;;;;;;;7.50;3.47;;;;;;;;;;5020497;28;20700;-71
2022/07/04 05:12:15;;;;;;;9.05;3.80;;;;;;;;;;5017384;28;20058;-71
2022/07/04 05:14:41;;;;;;;8.13;3.72;;;;;;;;;;5019686;28;20046;-71
2022/07/04 05:17:07;;;;;;;11.27;3.60;;;;;;;;;;5019872;28;20041;-71
2022/07/04 05:19:33;;;;;;;10.18;3.30;;;;;;;;;;5024174;28;20049;-73
2022/07/04 05:21:59;;;;;;;11.00;3.78;;;;;;;;;;5018312;22;20068;-71
2022/07/04 05:24:24;;;;;;;9.65;3.78;;;;;;;;;;5001272;28;20116;-69
2022/07/04 05:26:51;;;;;;;12.93;3.67;;;;;;;;;;5002885;28;20600;-67
2022/07/04 05:29:17;;;;;;;11.82;3.78;;;;;;;;;;5003914;28;20054;-69
2022/07/04 05:31:42;;;;;;;8.63;3.50;;;;;;;;;;4999760;28;20512;-71
2022/07/04 05:34:08;;;;;;;9.95;3.65;;;;;;;;;;4992033;28;20429;-69
2022/07/04 05:36:34;;;;;;;11.18;4.10;;;;;;;;;;5000725;28;20768;-69
2022/07/04 05:39:00;;;;;;;18.67;4.10;;;;;;;;;;5002049;28;20046;-67
2022/07/04 05:41:26;;;;;;;14.50;4.15;;;;;;;;;;4998106;28;20054;-68
2022/07/04 05:43:52;;;;;;;16.85;4.40;;;;;;;;;;5006750;28;20132;-70
2022/07/04 05:46:18;;;;;;;11.65;3.75;;;;;;;;;;5006061;28;20042;-69
2022/07/04 05:48:44;;;;;;;14.30;4.45;;;;;;;;;;5002238;28;20484;-67
2022/07/04 05:51:10;;;;;;;16.90;4.38;;;;;;;;;;5001772;28;20286;-68
2022/07/04 05:53:36;;;;;;;9.65;3.90;;;;;;;;;;5002922;28;20046;-70
2022/07/04 05:56:03;;;;;;;20.35;3.85;;;;;;;;;;5005766;28;20052;-68
2022/07/04 05:58:28;;;;;;;17.80;4.28;;;;;;;;;;5001465;28;20502;-70
2022/07/04 06:00:55;;;;;;;12.57;4.25;;;;;;;;;;5005948;28;20506;-69
2022/07/04 06:03:20;;;;;;;18.77;4.63;;;;;;;;;;5007915;28;20050;-69
2022/07/04 06:05:46;;;;;;;17.85;4.40;;;;;;;;;;5005536;28;20093;-69
2022/07/04 06:08:13;;;;;;;24.50;4.78;;;;;;;;;;5006492;28;20081;-70
2022/07/04 06:10:39;;;;;;;13.68;4.68;;;;;;;;;;5004905;28;20161;-69
2022/07/04 06:13:05;;;;;;;22.23;5.22;;;;;;;;;;4995885;28;20513;-70
2022/07/04 06:15:31;;;;;;;15.57;5.20;;;;;;;;;;5004092;28;20427;-68
2022/07/04 06:17:57;;;;;;;13.57;5.95;;;;;;;;;;5010988;28;20041;-69
2022/07/04 06:20:23;;;;;;;17.15;5.85;;;;;;;;;;4997999;28;20057;-72
2022/07/04 06:22:49;;;;;;;20.15;6.55;;;;;;;;;;5007199;28;20467;-71
2022/07/04 06:25:18;;;;;;;23.05;6.43;;;;;;;;;;5005949;28;20450;-67
2022/07/04 06:27:46;;;;;;;27.15;6.25;;;;;;;;;;5003433;28;20125;-69
2022/07/04 06:30:14;;;;;;;19.42;6.82;;;;;;;;;;5008412;28;20046;-68
2022/07/04 06:32:46;;;;;;;24.17;7.03;;;;;;;;;;5007073;28;20542;-67
2022/07/04 06:37:58;;;;;;;18.85;7.60;;;;;;;;;;5007468;28;20570;-68
2022/07/04 06:40:24;;;;;;;21.75;7.53;;;;;;;;;;5007237;28;20487;-68
2022/07/04 06:42:50;;;;;;;28.58;7.95;;;;;;;;;;5009701;28;20049;-68
2022/07/04 06:45:16;;;;;;;25.20;8.80;;;;;;;;;;5008300;28;20042;-71
2022/07/04 06:47:43;;;;;;;24.00;8.50;;;;;;;;;;5013787;28;20050;-70
2022/07/04 06:50:09;;;;;;;26.70;8.85;;;;;;;;;;5004094;28;20047;-68
2022/07/04 06:52:35;;;;;;;17.77;8.60;;;;;;;;;;4996992;28;20045;-70
2022/07/04 06:55:01;;;;;;;27.90;7.95;;;;;;;;;;5002982;28;20534;-67
2022/07/04 06:57:27;;;;;;;26.20;8.98;;;;;;;;;;5003359;28;20050;-69
2022/07/04 06:59:52;;;;;;;24.45;7.60;;;;;;;;;;5001314;28;20473;-69
2022/07/04 07:02:18;;;;;;;23.10;7.90;;;;;;;;;;5007971;28;20041;-70
2022/07/04 07:04:44;;;;;;;18.00;6.68;;;;;;;;;;5009310;28;20042;-71
2022/07/04 07:07:10;;;;;;;20.13;6.75;;;;;;;;;;5010049;28;20041;-70
2022/07/04 07:09:36;;;;;;;22.30;6.63;;;;;;;;;;5009359;28;20570;-71
2022/07/04 07:12:02;;;;;;;14.05;6.30;;;;;;;;;;4995967;28;20050;-68
2022/07/04 07:14:28;;;;;;;19.33;4.82;;;;;;;;;;4999172;28;20046;-66
2022/07/04 07:16:54;;;;;;;14.82;4.80;;;;;;;;;;5007222;28;20490;-69
2022/07/04 07:19:20;;;;;;;10.75;3.92;;;;;;;;;;4997424;28;20150;-67
2022/07/04 07:21:47;;;;;;;10.95;3.90;;;;;;;;;;5003251;28;20054;-67
2022/07/04 07:24:13;;;;;;;9.70;4.10;;;;;;;;;;4980560;28;20443;-68
2022/07/04 07:26:38;;;;;;;9.10;3.97;;;;;;;;;;4997080;28;20067;-67
2022/07/04 07:29:05;;;;;;;10.65;4.30;;;;;;;;;;5003252;28;20530;-67
2022/07/04 07:31:31;;;;;;;10.32;4.00;;;;;;;;;;5009846;28;20054;-66
2022/07/04 07:33:57;;;;;;;10.40;3.88;;;;;;;;;;5007411;28;20111;-67
2022/07/04 07:36:23;;;;;;;9.07;3.80;;;;;;;;;;4998967;28;20050;-66
2022/07/04 07:38:49;;;;;;;11.23;3.70;;;;;;;;;;5010859;28;20117;-70
2022/07/04 07:41:15;;;;;;;5.82;2.70;;;;;;;;;;5006856;28;20103;-68
2022/07/04 07:43:41;;;;;;;11.75;3.13;;;;;;;;;;5008970;28;20487;-72
2022/07/04 07:46:08;;;;;;;7.82;3.78;;;;;;;;;;4997353;28;20060;-69
2022/07/04 07:48:34;;;;;;;10.40;2.80;;;;;;;;;;5007638;28;20188;-70
2022/07/04 07:51:00;;;;;;;9.55;2.95;;;;;;;;;;5008276;28;20074;-71
2022/07/04 07:53:26;;;;;;;7.07;3.20;;;;;;;;;;5001985;28;20073;-68
2022/07/04 07:55:52;;;;;;;9.23;3.38;;;;;;;;;;5000294;28;20392;-70
2022/07/04 07:58:19;;;;;;;5.18;2.75;;;;;;;;;;5007410;28;20053;-68
2022/07/04 08:00:46;;;;;;;7.57;3.30;;;;;;;;;;5006998;28;20042;-71
2022/07/04 08:05:57;;;;;;;8.77;3.28;;;;;;;;;;5006733;28;20042;-67
2022/07/04 08:08:23;;;;;;;10.45;2.90;;;;;;;;;;5008789;28;20056;-71
2022/07/04 08:10:50;;;;;;;9.23;3.00;;;;;;;;;;5004902;28;20054;-70
2022/07/04 08:13:16;;;;;;;7.10;2.55;;;;;;;;;;5004826;28;20409;-69
2022/07/04 08:15:42;;;;;;;7.70;2.95;;;;;;;;;;5001576;28;20487;-69
2022/07/04 08:18:08;;;;;;;8.35;2.40;;;;;;;;;;5004064;28;20069;-68
2022/07/04 08:20:34;;;;;;;5.07;2.50;;;;;;;;;;5010414;28;20430;-68
2022/07/04 08:23:01;;;;;;;5.60;2.55;;;;;;;;;;5004089;28;20062;-68
2022/07/04 08:25:27;;;;;;;10.10;3.17;;;;;;;;;;5004622;28;20188;-71
2022/07/04 08:27:53;;;;;;;6.85;2.83;;;;;;;;;;5003389;28;20050;-70
2022/07/04 08:30:18;;;;;;;9.90;3.22;;;;;;;;;;5005130;28;20588;-74
2022/07/04 08:32:44;;;;;;;9.02;3.00;;;;;;;;;;5007184;28;20076;-67
2022/07/04 08:35:10;;;;;;;7.57;2.42;;;;;;;;;;5001963;28;20129;-67
2022/07/04 08:37:36;;;;;;;9.60;2.90;;;;;;;;;;5002135;28;20161;-68
2022/07/04 08:40:06;;;;;;;6.63;2.70;;;;;;;;;;5003700;28;20133;-69
2022/07/04 08:42:39;;;;;;;9.60;3.03;;;;;;;;;;5004063;28;20153;-70
2022/07/04 08:45:06;;;;;;;7.18;2.63;;;;;;;;;;4997416;28;20049;-65
2022/07/04 08:47:33;;;;;;;5.93;2.10;;;;;;;;;;5002796;28;20521;-68
2022/07/04 08:50:02;;;;;;;6.85;2.28;;;;;;;;;;5003282;28;20503;-67
2022/07/04 08:52:36;;;;;;;9.02;2.10;;;;;;;;;;4996622;28;20078;-68
2022/07/04 09:00:36;;;;;;;7.72;2.60;;;;;;;;;;5002537;28;20050;-69
2022/07/04 09:03:03;;;;;;;10.65;2.50;;;;;;;;;;5009302;28;20046;-70
2022/07/04 09:05:32;;;;;;;10.18;2.72;;;;;;;;;;5010721;28;20038;-68
2022/07/04 09:07:58;;;;;;;5.38;2.08;;;;;;;;;;5003435;28;20050;-70
2022/07/04 09:10:25;;;;;;;6.07;2.22;;;;;;;;;;5010849;28;20384;-73
2022/07/04 09:12:52;;;;;;;4.65;2.10;;;;;;;;;;5006043;28;20069;-71
2022/07/04 09:15:18;;;;;;;5.43;2.10;;;;;;;;;;5013124;28;20133;-70
2022/07/04 09:17:44;;;;;;;8.55;2.63;;;;;;;;;;5006756;28;20112;-69
2022/07/04 09:20:21;;;;;;;7.32;2.35;;;;;;;;;;5001954;28;20426;-67
2022/07/04 09:22:48;;;;;;;4.07;2.30;;;;;;;;;;5002019;28;20077;-71
2022/07/04 09:25:15;;;;;;;6.78;2.35;;;;;;;;;;4996867;28;20050;-68
2022/07/04 09:27:47;;;;;;;9.82;2.80;;;;;;;;;;5010023;28;20383;-69
2022/07/04 09:30:21;;;;;;;7.97;2.88;;;;;;;;;;5010630;28;20049;-69
2022/07/04 09:32:51;;;;;;;9.90;2.45;;;;;;;;;;5008443;28;20049;-71
2022/07/04 09:35:19;;;;;;;7.80;2.50;;;;;;;;;;5004555;28;20133;-68
2022/07/04 09:37:47;;;;;;;7.15;2.30;;;;;;;;;;5007152;28;20049;-68
2022/07/04 09:43:23;;;;;;;7.40;2.70;;;;;;;;;;5001337;28;20100;-67
2022/07/04 09:46:03;;;;;;;3.33;1.85;;;;;;;;;;5008734;28;20069;-67
2022/07/04 09:48:49;;;;;;;10.85;2.40;;;;;;;;;;5010078;28;20050;-69
2022/07/04 09:51:21;;;;;;;4.50;2.33;;;;;;;;;;5005689;28;20616;-66
2022/07/04 09:53:47;;;;;;;6.05;2.30;;;;;;;;;;5008660;28;20056;-66
2022/07/04 09:56:13;;;;;;;5.63;2.58;;;;;;;;;;5009045;28;20046;-71
2022/07/04 09:58:45;;;;;;;6.70;2.50;;;;;;;;;;5011778;28;20083;-71
2022/07/04 10:01:19;;;;;;;5.32;2.90;;;;;;;;;;5009020;28;20057;-69
2022/07/04 10:03:45;;;;;;;9.85;2.70;;;;;;;;;;5005763;28;20060;-69
2022/07/04 10:06:15;;;;;;;6.53;2.40;;;;;;;;;;5004573;28;20105;-69
2022/07/04 10:08:43;;;;;;;10.70;2.40;;;;;;;;;;5009615;28;20802;-67
2022/07/04 10:11:11;;;;;;;11.05;2.85;;;;;;;;;;5004303;28;20042;-72
2022/07/04 10:13:38;;;;;;;5.20;2.40;;;;;;;;;;5010180;28;20042;-71
2022/07/04 10:16:04;;;;;;;6.10;2.72;;;;;;;;;;5002929;28;20046;-72
2022/07/04 10:18:30;;;;;;;10.13;2.58;;;;;;;;;;5010020;28;20384;-71
2022/07/04 10:20:57;;;;;;;6.38;2.22;;;;;;;;;;5007195;28;20060;-69
2022/07/04 10:23:30;;;;;;;7.63;2.10;;;;;;;;;;5012551;28;20104;-71
2022/07/04 10:25:57;;;;;;;4.78;2.35;;;;;;;;;;5003818;28;20042;-72
2022/07/04 10:28:24;;;;;;;8.40;2.33;;;;;;;;;;5002635;28;20562;-73
2022/07/04 10:30:52;;;;;;;5.88;2.00;;;;;;;;;;4999390;28;20046;-74
2022/07/04 10:33:24;;;;;;;6.13;2.10;;;;;;;;;;5004949;28;20034;-71
2022/07/04 10:36:01;;;;;;;10.38;2.50;;;;;;;;;;5006362;28;20723;-73
2022/07/04 10:38:29;;;;;;;6.20;2.10;;;;;;;;;;5005268;28;20048;-71
2022/07/04 10:41:05;;;;;;;8.05;2.30;;;;;;;;;;5004576;28;20089;-72
2022/07/04 10:43:35;;;;;;;7.15;2.60;;;;;;;;;;5000606;28;20431;-72
2022/07/04 10:46:16;;;;;;;7.90;2.00;;;;;;;;;;4995504;28;20069;-72
2022/07/04 10:49:02;;;;;;;4.88;2.20;;;;;;;;;;5005528;28;20048;-70
2022/07/04 10:51:35;;;;;;;4.32;2.17;;;;;;;;;;5006388;28;20105;-69
2022/07/04 10:54:06;;;;;;;;;;;;;;;;;;5010148;28;20419;-68
2022/07/04 10:56:41;;;;;;;4.68;1.90;;;;;;;;;;5003973;28;19929;-69
2022/07/04 10:59:25;;;;;;;6.90;2.00;;;;;;;;;;5005325;28;20038;-70
2022/07/04 11:02:13;;;;;;;10.65;2.20;;;;;;;;;;4998880;28;20141;-71
2022/07/04 11:04:52;;;;;;;8.73;2.53;;;;;;;;;;4994864;28;20076;-67
2022/07/04 11:07:19;;;;;;;3.38;1.83;;;;;;;;;;5003816;28;20076;-72
2022/07/04 11:09:47;;;;;;;3.65;2.13;;;;;;;;;;5008202;28;20050;-67
2022/07/04 11:12:14;;;;;;;9.63;2.20;;;;;;;;;;4996707;28;20292;-68
2022/07/04 11:14:47;;;;;;;6.47;2.22;;;;;;;;;;5010281;28;20117;-69
2022/07/04 11:17:18;;;;;;;5.95;1.90;;;;;;;;;;5004578;28;20038;-70
2022/07/04 11:19:45;;;;;;;6.28;2.10;;;;;;;;;;5008880;28;20545;-68
2022/07/04 11:22:11;;;;;;;7.10;2.13;;;;;;;;;;5005874;28;20057;-70
2022/07/04 11:24:39;;;;;;;6.70;2.30;;;;;;;;;;5005422;28;20046;-68
2022/07/04 11:27:10;;;;;;;6.25;2.20;;;;;;;;;;5006490;28;20053;-70
2022/07/04 11:29:36;;;;;;;5.20;2.45;;;;;;;;;;5010282;28;20048;-70
2022/07/04 11:32:07;;;;;;;5.95;2.30;;;;;;;;;;5008862;28;20038;-68
2022/07/04 11:34:33;;;;;;;6.47;2.22;;;;;;;;;;5004321;28;20043;-69
2022/07/04 11:37:01;;;;;;;6.03;2.30;;;;;;;;;;4993493;28;20065;-70
2022/07/04 11:39:27;;;;;;;8.95;2.50;;;;;;;;;;5007770;28;20058;-70
2022/07/04 11:47:41;;;;;;;6.18;2.30;;;;;;;;;;4999917;28;20065;-69
2022/07/04 11:50:14;;;;;;;6.40;2.55;;;;;;;;;;5004525;28;20076;-70
2022/07/04 11:52:46;;;;;;;5.25;2.63;;;;;;;;;;5000231;28;20068;-70
2022/07/04 11:55:14;;;;;;;9.05;2.35;;;;;;;;;;5009695;28;20046;-69
2022/07/04 11:57:52;;;;;;;6.00;2.60;;;;;;;;;;4999374;28;20495;-69
2022/07/04 12:00:21;;;;;;;6.07;2.40;;;;;;;;;;5006269;28;20042;-70
2022/07/04 12:02:48;;;;;;;8.23;2.70;;;;;;;;;;4997592;28;20473;-68
2022/07/04 12:05:16;;;;;;;8.95;2.88;;;;;;;;;;4996733;28;20077;-71
2022/07/04 12:07:47;;;;;;;9.98;2.33;;;;;;;;;;5002026;28;20073;-72
2022/07/04 12:10:22;;;;;;;8.75;2.30;;;;;;;;;;5003787;28;20136;-64
2022/07/04 12:12:56;;;;;;;4.57;2.15;;;;;;;;;;5003471;28;20108;-69
2022/07/04 12:15:24;;;;;;;4.00;1.92;;;;;;;;;;5008905;28;20052;-65
2022/07/04 12:17:55;;;;;;;9.35;2.10;;;;;;;;;;5006388;28;20270;-65
2022/07/04 12:20:22;;;;;;;7.07;2.10;;;;;;;;;;5006202;28;20034;-70
2022/07/04 12:22:57;;;;;;;6.88;1.63;;;;;;;;;;5004088;28;20068;-68
2022/07/04 12:25:25;;;;;;;3.70;1.70;;;;;;;;;;5004226;28;20081;-66
2022/07/04 12:27:59;;;;;;;4.10;1.65;;;;;;;;;;5000487;28;20132;-66
2022/07/04 12:30:27;;;;;;;4.47;2.00;;;;;;;;;;5001304;28;20458;-67
2022/07/04 12:32:57;;;;;;;4.95;2.22;;;;;;;;;;5000239;28;20041;-69
2022/07/04 12:35:32;;;;;;;6.38;1.75;;;;;;;;;;5005613;28;20043;-67
2022/07/04 12:38:06;;;;;;;4.72;2.03;;;;;;;;;;5005604;28;20509;-67
2022/07/04 12:40:34;;;;;;;3.88;1.48;;;;;;;;;;5004666;28;20042;-70
2022/07/04 12:43:00;;;;;;;6.28;1.73;;;;;;;;;;5002168;28;20061;-68
2022/07/04 12:45:41;;;;;;;3.78;1.30;;;;;;;;;;5005513;28;20138;-70
2022/07/04 12:48:22;;;;;;;35.75;8.60;;;;;;;;;;5003829;28;20471;-71
2022/07/04 12:50:48;;;;;;;5.80;2.17;;;;;;;;;;5002044;28;20049;-69
2022/07/04 12:53:14;;;;;;;10.70;2.78;;;;;;;;;;5004663;28;20046;-71
2022/07/04 12:55:42;;;;;;;8.75;1.80;;;;;;;;;;5003841;28;20046;-68
2022/07/04 12:58:08;;;;;;;3.13;1.13;;;;;;;;;;5003023;28;20121;-68
2022/07/04 13:00:34;;;;;;;4.20;1.20;;;;;;;;;;5000928;28;20081;-69
2022/07/04 13:02:59;;;;;;;6.45;1.83;;;;;;;;;;5003588;28;20078;-67
2022/07/04 13:05:26;;;;;;;8.65;1.60;;;;;;;;;;4996754;28;20049;-67
2022/07/04 13:07:53;;;;;;;6.88;1.67;;;;;;;;;;5004841;28;20054;-71
2022/07/04 13:10:19;;;;;;;6.15;1.40;;;;;;;;;;5002969;28;20041;-71
2022/07/04 13:12:44;;;;;;;3.70;1.38;;;;;;;;;;4997168;28;20469;-69
2022/07/04 13:15:13;;;;;;;4.57;1.00;;;;;;;;;;5003339;28;20487;-67
2022/07/04 13:17:39;;;;;;;7.13;1.30;;;;;;;;;;5004190;28;20038;-72
2022/07/04 13:20:05;;;;;;;2.67;1.20;;;;;;;;;;5004811;28;20057;-67
2022/07/04 13:22:32;;;;;;;5.13;1.10;;;;;;;;;;5001441;28;20050;-69
2022/07/04 13:25:00;;;;;;;3.53;1.17;;;;;;;;;;5003967;28;20046;-70
2022/07/04 13:27:26;;;;;;;3.95;1.30;;;;;;;;;;4999538;28;20564;-68
2022/07/04 13:29:52;;;;;;;4.65;1.25;;;;;;;;;;5001265;28;20100;-69
2022/07/04 13:32:18;;;;;;;8.52;1.70;;;;;;;;;;5007025;28;20046;-67
2022/07/04 13:34:44;;;;;;;15.13;1.90;;;;;;;;;;5002780;28;20495;-73
2022/07/04 13:37:10;;;;;;;6.28;1.15;;;;;;;;;;4998880;28;20122;-69
2022/07/04 13:39:35;;;;;;;5.70;1.30;;;;;;;;;;5000720;28;20060;-67
2022/07/04 13:42:01;;;;;;;4.63;1.50;;;;;;;;;;5000258;28;20507;-69
2022/07/04 13:44:27;;;;;;;5.90;1.20;;;;;;;;;;4995053;28;20100;-69
2022/07/04 13:46:56;;;;;;;5.82;1.40;;;;;;;;;;5006235;28;20068;-66
2022/07/04 13:49:22;;;;;;;7.78;1.45;;;;;;;;;;5004312;28;20092;-70
2022/07/04 13:51:48;;;;;;;4.38;1.30;;;;;;;;;;5008585;28;20053;-70
2022/07/04 13:54:13;;;;;;;4.72;1.25;;;;;;;;;;5012486;28;20050;-68
2022/07/04 13:56:40;;;;;;;3.65;1.20;;;;;;;;;;5008768;28;20050;-68
2022/07/04 13:59:06;;;;;;;7.47;1.40;;;;;;;;;;5005070;28;20499;-70
2022/07/04 14:01:31;;;;;;;5.43;1.40;;;;;;;;;;5004346;28;20122;-69
2022/07/04 14:03:57;;;;;;;2.97;1.23;;;;;;;;;;5002501;28;20041;-70
2022/07/04 14:06:23;;;;;;;5.25;1.58;;;;;;;;;;5002396;28;20132;-68
2022/07/04 14:08:49;;;;;;;2.33;1.10;;;;;;;;;;5000080;28;20125;-68
2022/07/04 14:11:15;;;;;;;2.60;1.40;;;;;;;;;;5012221;28;20073;-68
2022/07/04 14:13:41;;;;;;;4.40;1.20;;;;;;;;;;5002245;28;20133;-72
2022/07/04 14:16:07;;;;;;;3.17;1.05;;;;;;;;;;4998777;28;20668;-68
2022/07/04 14:18:33;;;;;;;4.72;1.10;;;;;;;;;;5006318;28;20046;-67
2022/07/04 14:21:00;;;;;;;6.70;1.45;;;;;;;;;;5010654;28;20049;-68
2022/07/04 14:23:41;;;;;;;7.43;1.40;;;;;;;;;;5007643;28;20042;-69
2022/07/04 14:26:09;;;;;;;3.17;1.20;;;;;;;;;;5012000;28;20103;-67
2022/07/04 14:28:35;;;;;;;6.72;1.60;;;;;;;;;;5006434;28;20054;-71
2022/07/04 14:31:00;;;;;;;7.43;1.42;;;;;;;;;;5011163;28;20053;-69
2022/07/04 14:33:27;;;;;;;11.30;2.90;;;;;;;;;;4999121;28;20085;-67
2022/07/04 14:35:52;;;;;;;7.47;2.60;;;;;;;;;;5007402;28;20081;-68
2022/07/04 14:38:19;;;;;;;5.20;1.73;;;;;;;;;;5008966;28;20050;-69
2022/07/04 14:40:48;;;;;;;5.78;1.67;;;;;;;;;;5005880;28;20944;-70
2022/07/04 14:43:14;;;;;;;5.55;1.38;;;;;;;;;;5003597;28;20049;-69
2022/07/04 14:45:40;;;;;;;5.05;1.58;;;;;;;;;;5010077;28;20506;-71
2022/07/04 14:48:06;;;;;;;7.50;1.90;;;;;;;;;;5008771;28;20049;-69
2022/07/04 14:50:32;;;;;;;4.75;1.70;;;;;;;;;;5002564;28;20058;-67
2022/07/04 14:52:57;;;;;;;7.93;2.13;;;;;;;;;;5004302;28;20137;-69
2022/07/04 14:55:23;;;;;;;8.85;1.40;;;;;;;;;;5001218;28;20073;-67
2022/07/04 14:57:49;;;;;;;5.70;1.30;;;;;;;;;;5007734;28;20077;-68
2022/07/04 15:00:15;;;;;;;2.95;1.40;;;;;;;;;;5007605;28;20095;-67
2022/07/04 15:02:41;;;;;;;3.83;1.20;;;;;;;;;;5006044;28;20058;-70
2022/07/04 15:05:07;;;;;;;5.25;1.17;;;;;;;;;;5005236;28;20172;-69
2022/07/04 15:07:34;;;;;;;3.70;1.23;;;;;;;;;;5009317;28;20048;-69